A- A+ FrançaisEnglishEspañol中国

最近的 GMMT Casablanca Tit-MellilLFBT Tarbes-Lourdes-PyrénéesLTFM IstanbulLTBA Istanbul AtaturkSBMT Sao Paulo MarteLFLG Grenoble-Le-Versoud

飞行员的航空天气,使用METAR(气象机场报告)进行的飞行准备和TAF(终端机场预报:针对以下情况的短期天气预报)航空)。 以及其他资源,例如VAC(目视进近图)和NOTAM(通知飞行员)以进行预试飞行.

METAR, TAF, VAC, NOTAM Topcliffe机场 (联合王国) / OACI EGXZ

它位于附近 Topcliffe (联合王国). 可提供5天天气预报 Sessay 位于 6.4 km.

机场的高度为 Topcliffe机场的

28 m = 92 ft

附近的机场 Topcliffe机场的

跑道 Topcliffe机场的

METAR Topcliffe机场的 - EGXZ

EGXZ 221950Z AUTO 13007KT 9999 NCD 01/M01 Q1030

Topcliffe机场METAR解码 (联合王国)

EGXZ机场发行的METAR日期2020年03月22日至19:50 GMT. 这是一个自动生成的METAR, 警告:此METAR已过期, 已于 16 天 15 小时 16 分钟.

可见度为大于 10 km = 大于6.2 sm.

温度为1°C = 34 °F 露点为-1°C = 30 °F 。 这相当于86%的相对湿度。.

QNH是1030 hPa = 30.42 inHg

的风7 kt = 13 km/h, 风向为130°.

天空晴朗

TAF Topcliffe机场的 - EGXZ

EGXZ 181317Z 1815/1824 VRB03KT 9999 FEW030 BKN048

Topcliffe机场TAF解码 (联合王国)

EGXZ机场发行的TAF日期2019年09月18日至13:17 GMT 警告:此TAF已过期, 已于 202 天 21 小时 49 分钟.

du mercredi 18 septembre 2019 à 15:00 heure TU au mercredi 18 septembre 2019 à 00:00 heure TU

的风3 kt = 6 km/h, 风向为°.

可见度为大于 10 km = 大于6.2 sm.

处少云 3000 ft=910云. 距云 4800 ft=1460云.

Topcliffe机场的NOTAM

提供的NOTAM不能保证其时事性。 在将其用于飞行准备或在飞行期间使用之前,飞行员是唯一负责验证其有效性的人员。

没有通知

数据源